sensor_id;sensor_type;location;lat;lon;timestamp;P1;durP1;ratioP1;P2;durP2;ratioP2
21761;SDS011;11203;50.870;20.682;2023-03-03T00:01:10;415.05;;;205.25;;
21761;SDS011;11203;50.870;20.682;2023-03-03T00:03:36;416.67;;;215.07;;
21761;SDS011;11203;50.870;20.682;2023-03-03T00:06:03;406.27;;;201.35;;
21761;SDS011;11203;50.870;20.682;2023-03-03T00:08:31;412.63;;;200.52;;
21761;SDS011;11203;50.870;20.682;2023-03-03T00:10:58;399.83;;;198.63;;
21761;SDS011;11203;50.870;20.682;2023-03-03T00:13:25;392.50;;;188.23;;
21761;SDS011;11203;50.870;20.682;2023-03-03T00:15:53;377.02;;;172.98;;
21761;SDS011;11203;50.870;20.682;2023-03-03T00:18:55;354.67;;;168.95;;
21761;SDS011;11203;50.870;20.682;2023-03-03T00:21:41;339.98;;;162.02;;
21761;SDS011;11203;50.870;20.682;2023-03-03T00:24:20;331.02;;;153.23;;
21761;SDS011;11203;50.870;20.682;2023-03-03T00:27:00;341.00;;;160.63;;
21761;SDS011;11203;50.870;20.682;2023-03-03T00:29:43;364.50;;;170.32;;
21761;SDS011;11203;50.870;20.682;2023-03-03T00:34:44;394.35;;;184.48;;
21761;SDS011;11203;50.870;20.682;2023-03-03T00:39:58;400.02;;;184.13;;
21761;SDS011;11203;50.870;20.682;2023-03-03T00:42:49;386.65;;;180.40;;
21761;SDS011;11203;50.870;20.682;2023-03-03T00:45:42;382.48;;;182.85;;
21761;SDS011;11203;50.870;20.682;2023-03-03T00:51:00;390.55;;;187.15;;
21761;SDS011;11203;50.870;20.682;2023-03-03T00:53:48;377.05;;;181.45;;
21761;SDS011;11203;50.870;20.682;2023-03-03T00:56:15;381.83;;;185.35;;
21761;SDS011;11203;50.870;20.682;2023-03-03T00:58:41;390.98;;;189.73;;
21761;SDS011;11203;50.870;20.682;2023-03-03T01:01:10;382.90;;;189.75;;
21761;SDS011;11203;50.870;20.682;2023-03-03T01:03:36;426.20;;;206.15;;
21761;SDS011;11203;50.870;20.682;2023-03-03T01:06:02;443.90;;;214.02;;
21761;SDS011;11203;50.870;20.682;2023-03-03T01:08:28;434.05;;;217.45;;
21761;SDS011;11203;50.870;20.682;2023-03-03T01:10:55;426.92;;;209.00;;
21761;SDS011;11203;50.870;20.682;2023-03-03T01:13:25;420.85;;;206.00;;
21761;SDS011;11203;50.870;20.682;2023-03-03T01:15:55;423.92;;;209.18;;
21761;SDS011;11203;50.870;20.682;2023-03-03T01:18:24;409.05;;;205.02;;
21761;SDS011;11203;50.870;20.682;2023-03-03T01:20:51;416.90;;;209.05;;
21761;SDS011;11203;50.870;20.682;2023-03-03T01:23:17;461.27;;;226.02;;
21761;SDS011;11203;50.870;20.682;2023-03-03T01:25:43;399.98;;;195.80;;
21761;SDS011;11203;50.870;20.682;2023-03-03T01:28:09;396.52;;;195.13;;
21761;SDS011;11203;50.870;20.682;2023-03-03T01:30:35;363.30;;;187.07;;
21761;SDS011;11203;50.870;20.682;2023-03-03T01:33:02;408.30;;;200.05;;
21761;SDS011;11203;50.870;20.682;2023-03-03T01:35:28;374.13;;;191.65;;
21761;SDS011;11203;50.870;20.682;2023-03-03T01:37:55;405.17;;;197.13;;
21761;SDS011;11203;50.870;20.682;2023-03-03T01:40:22;364.50;;;184.45;;
21761;SDS011;11203;50.870;20.682;2023-03-03T01:42:52;391.75;;;192.65;;
21761;SDS011;11203;50.870;20.682;2023-03-03T01:45:25;378.80;;;187.70;;
21761;SDS011;11203;50.870;20.682;2023-03-03T01:48:02;378.35;;;183.70;;
21761;SDS011;11203;50.870;20.682;2023-03-03T01:53:21;350.95;;;177.60;;
21761;SDS011;11203;50.870;20.682;2023-03-03T01:56:19;369.08;;;179.98;;
21761;SDS011;11203;50.870;20.682;2023-03-03T01:58:47;340.60;;;173.73;;
21761;SDS011;11203;50.870;20.682;2023-03-03T02:01:19;343.83;;;172.80;;
21761;SDS011;11203;50.870;20.682;2023-03-03T02:03:52;331.63;;;165.27;;
21761;SDS011;11203;50.870;20.682;2023-03-03T02:06:22;336.23;;;167.55;;
21761;SDS011;11203;50.870;20.682;2023-03-03T02:08:56;340.45;;;172.60;;
21761;SDS011;11203;50.870;20.682;2023-03-03T02:11:50;342.77;;;173.43;;
21761;SDS011;11203;50.870;20.682;2023-03-03T02:14:19;346.67;;;174.60;;
21761;SDS011;11203;50.870;20.682;2023-03-03T02:16:45;346.38;;;173.43;;
21761;SDS011;11203;50.870;20.682;2023-03-03T02:19:23;319.60;;;161.20;;
21761;SDS011;11203;50.870;20.682;2023-03-03T02:22:20;323.50;;;162.60;;
21761;SDS011;11203;50.870;20.682;2023-03-03T02:24:56;329.10;;;166.27;;
21761;SDS011;11203;50.870;20.682;2023-03-03T02:27:27;334.02;;;166.65;;
21761;SDS011;11203;50.870;20.682;2023-03-03T02:29:56;328.67;;;163.48;;
21761;SDS011;11203;50.870;20.682;2023-03-03T02:32:22;322.52;;;160.80;;
21761;SDS011;11203;50.870;20.682;2023-03-03T02:34:49;316.48;;;153.25;;
21761;SDS011;11203;50.870;20.682;2023-03-03T02:37:17;299.30;;;147.80;;
21761;SDS011;11203;50.870;20.682;2023-03-03T02:39:45;257.27;;;133.00;;
21761;SDS011;11203;50.870;20.682;2023-03-03T02:42:18;252.82;;;124.75;;
21761;SDS011;11203;50.870;20.682;2023-03-03T02:44:48;292.70;;;146.82;;
21761;SDS011;11203;50.870;20.682;2023-03-03T02:47:14;261.70;;;133.73;;
21761;SDS011;11203;50.870;20.682;2023-03-03T02:49:40;387.88;;;167.38;;
21761;SDS011;11203;50.870;20.682;2023-03-03T02:52:08;238.55;;;116.60;;
21761;SDS011;11203;50.870;20.682;2023-03-03T02:54:36;229.95;;;116.63;;
21761;SDS011;11203;50.870;20.682;2023-03-03T02:57:03;234.65;;;119.20;;
21761;SDS011;11203;50.870;20.682;2023-03-03T02:59:30;239.25;;;123.75;;
21761;SDS011;11203;50.870;20.682;2023-03-03T03:01:56;241.68;;;121.75;;
21761;SDS011;11203;50.870;20.682;2023-03-03T03:04:24;246.65;;;122.60;;
21761;SDS011;11203;50.870;20.682;2023-03-03T03:06:52;261.10;;;130.35;;
21761;SDS011;11203;50.870;20.682;2023-03-03T03:09:20;275.30;;;136.80;;
21761;SDS011;11203;50.870;20.682;2023-03-03T03:11:49;265.27;;;135.75;;
21761;SDS011;11203;50.870;20.682;2023-03-03T03:14:15;286.17;;;145.70;;
21761;SDS011;11203;50.870;20.682;2023-03-03T03:16:41;288.88;;;147.95;;
21761;SDS011;11203;50.870;20.682;2023-03-03T03:19:07;276.27;;;141.48;;
21761;SDS011;11203;50.870;20.682;2023-03-03T03:21:33;288.80;;;145.70;;
21761;SDS011;11203;50.870;20.682;2023-03-03T03:24:00;277.85;;;145.73;;
21761;SDS011;11203;50.870;20.682;2023-03-03T03:26:26;299.20;;;154.35;;
21761;SDS011;11203;50.870;20.682;2023-03-03T03:28:52;290.00;;;151.75;;
21761;SDS011;11203;50.870;20.682;2023-03-03T03:31:18;287.35;;;146.57;;
21761;SDS011;11203;50.870;20.682;2023-03-03T03:33:46;296.63;;;147.98;;
21761;SDS011;11203;50.870;20.682;2023-03-03T03:36:13;291.60;;;144.80;;
21761;SDS011;11203;50.870;20.682;2023-03-03T03:38:39;297.15;;;154.07;;
21761;SDS011;11203;50.870;20.682;2023-03-03T03:41:05;302.65;;;152.63;;
21761;SDS011;11203;50.870;20.682;2023-03-03T03:43:32;293.80;;;152.52;;
21761;SDS011;11203;50.870;20.682;2023-03-03T03:45:58;296.45;;;148.57;;
21761;SDS011;11203;50.870;20.682;2023-03-03T03:48:25;289.63;;;149.48;;
21761;SDS011;11203;50.870;20.682;2023-03-03T03:50:51;259.33;;;134.02;;
21761;SDS011;11203;50.870;20.682;2023-03-03T03:53:17;235.88;;;123.32;;
21761;SDS011;11203;50.870;20.682;2023-03-03T03:55:44;255.23;;;133.75;;
21761;SDS011;11203;50.870;20.682;2023-03-03T03:58:14;251.07;;;132.85;;
21761;SDS011;11203;50.870;20.682;2023-03-03T04:00:41;271.85;;;141.52;;
21761;SDS011;11203;50.870;20.682;2023-03-03T04:03:09;282.45;;;143.48;;
21761;SDS011;11203;50.870;20.682;2023-03-03T04:05:35;262.33;;;135.40;;
21761;SDS011;11203;50.870;20.682;2023-03-03T04:08:02;245.43;;;125.80;;
21761;SDS011;11203;50.870;20.682;2023-03-03T04:10:28;247.45;;;130.63;;
21761;SDS011;11203;50.870;20.682;2023-03-03T04:12:54;248.63;;;126.53;;
21761;SDS011;11203;50.870;20.682;2023-03-03T04:15:20;246.43;;;127.78;;
21761;SDS011;11203;50.870;20.682;2023-03-03T04:17:47;237.68;;;123.75;;
21761;SDS011;11203;50.870;20.682;2023-03-03T04:20:13;213.43;;;111.90;;
21761;SDS011;11203;50.870;20.682;2023-03-03T04:22:41;225.27;;;117.07;;
21761;SDS011;11203;50.870;20.682;2023-03-03T04:25:08;210.10;;;111.60;;
21761;SDS011;11203;50.870;20.682;2023-03-03T04:27:41;202.27;;;107.28;;
21761;SDS011;11203;50.870;20.682;2023-03-03T04:30:07;227.77;;;116.57;;
21761;SDS011;11203;50.870;20.682;2023-03-03T04:32:35;222.02;;;114.20;;
21761;SDS011;11203;50.870;20.682;2023-03-03T04:35:01;227.35;;;115.68;;
21761;SDS011;11203;50.870;20.682;2023-03-03T04:37:27;212.65;;;111.25;;
21761;SDS011;11203;50.870;20.682;2023-03-03T04:39:53;215.60;;;111.65;;
21761;SDS011;11203;50.870;20.682;2023-03-03T04:42:19;234.07;;;115.78;;
21761;SDS011;11203;50.870;20.682;2023-03-03T04:44:45;217.88;;;114.18;;
21761;SDS011;11203;50.870;20.682;2023-03-03T04:47:11;223.88;;;113.40;;
21761;SDS011;11203;50.870;20.682;2023-03-03T04:49:37;215.00;;;115.10;;
21761;SDS011;11203;50.870;20.682;2023-03-03T04:52:03;227.07;;;117.88;;
21761;SDS011;11203;50.870;20.682;2023-03-03T04:54:30;232.98;;;119.07;;
21761;SDS011;11203;50.870;20.682;2023-03-03T04:56:56;237.70;;;118.10;;
21761;SDS011;11203;50.870;20.682;2023-03-03T04:59:22;209.65;;;108.85;;
21761;SDS011;11203;50.870;20.682;2023-03-03T05:01:48;188.88;;;99.68;;
21761;SDS011;11203;50.870;20.682;2023-03-03T05:04:15;197.98;;;107.10;;
21761;SDS011;11203;50.870;20.682;2023-03-03T05:06:41;210.30;;;107.93;;
21761;SDS011;11203;50.870;20.682;2023-03-03T05:09:07;204.25;;;104.35;;
21761;SDS011;11203;50.870;20.682;2023-03-03T05:11:34;194.75;;;103.47;;
21761;SDS011;11203;50.870;20.682;2023-03-03T05:14:00;199.27;;;105.40;;
21761;SDS011;11203;50.870;20.682;2023-03-03T05:16:27;196.43;;;104.93;;
21761;SDS011;11203;50.870;20.682;2023-03-03T05:18:54;209.70;;;108.85;;
21761;SDS011;11203;50.870;20.682;2023-03-03T05:21:20;204.70;;;102.53;;
21761;SDS011;11203;50.870;20.682;2023-03-03T05:23:46;188.18;;;93.07;;
21761;SDS011;11203;50.870;20.682;2023-03-03T05:26:14;192.05;;;98.03;;
21761;SDS011;11203;50.870;20.682;2023-03-03T05:28:41;191.68;;;94.05;;
21761;SDS011;11203;50.870;20.682;2023-03-03T05:31:07;186.65;;;92.22;;
21761;SDS011;11203;50.870;20.682;2023-03-03T05:33:34;186.25;;;89.90;;
21761;SDS011;11203;50.870;20.682;2023-03-03T05:36:00;197.73;;;92.90;;
21761;SDS011;11203;50.870;20.682;2023-03-03T05:38:26;190.05;;;89.32;;
21761;SDS011;11203;50.870;20.682;2023-03-03T05:40:52;189.07;;;86.53;;
21761;SDS011;11203;50.870;20.682;2023-03-03T05:43:19;185.40;;;89.95;;
21761;SDS011;11203;50.870;20.682;2023-03-03T05:45:45;165.40;;;82.07;;
21761;SDS011;11203;50.870;20.682;2023-03-03T05:48:11;181.65;;;87.93;;
21761;SDS011;11203;50.870;20.682;2023-03-03T05:50:38;190.25;;;95.38;;
21761;SDS011;11203;50.870;20.682;2023-03-03T05:53:04;191.38;;;93.45;;
21761;SDS011;11203;50.870;20.682;2023-03-03T05:55:30;197.50;;;94.53;;
21761;SDS011;11203;50.870;20.682;2023-03-03T05:57:56;211.57;;;96.18;;
21761;SDS011;11203;50.870;20.682;2023-03-03T06:00:22;208.52;;;103.75;;
21761;SDS011;11203;50.870;20.682;2023-03-03T06:02:48;197.32;;;92.53;;
21761;SDS011;11203;50.870;20.682;2023-03-03T06:05:15;204.95;;;102.47;;
21761;SDS011;11203;50.870;20.682;2023-03-03T06:07:41;200.20;;;105.03;;
21761;SDS011;11203;50.870;20.682;2023-03-03T06:10:07;207.95;;;102.03;;
21761;SDS011;11203;50.870;20.682;2023-03-03T06:12:34;194.32;;;94.15;;
21761;SDS011;11203;50.870;20.682;2023-03-03T06:15:01;196.23;;;99.15;;
21761;SDS011;11203;50.870;20.682;2023-03-03T06:17:27;208.30;;;104.68;;
21761;SDS011;11203;50.870;20.682;2023-03-03T06:19:53;197.80;;;97.65;;
21761;SDS011;11203;50.870;20.682;2023-03-03T06:22:22;224.38;;;113.38;;
21761;SDS011;11203;50.870;20.682;2023-03-03T06:24:48;222.68;;;110.57;;
21761;SDS011;11203;50.870;20.682;2023-03-03T06:27:16;211.60;;;106.53;;
21761;SDS011;11203;50.870;20.682;2023-03-03T06:29:43;215.50;;;107.22;;
21761;SDS011;11203;50.870;20.682;2023-03-03T06:32:09;172.27;;;83.68;;
21761;SDS011;11203;50.870;20.682;2023-03-03T06:34:36;165.43;;;74.88;;
21761;SDS011;11203;50.870;20.682;2023-03-03T06:37:02;159.43;;;78.78;;
21761;SDS011;11203;50.870;20.682;2023-03-03T06:39:29;174.05;;;85.90;;
21761;SDS011;11203;50.870;20.682;2023-03-03T06:41:55;169.77;;;81.40;;
21761;SDS011;11203;50.870;20.682;2023-03-03T06:44:21;169.70;;;85.47;;
21761;SDS011;11203;50.870;20.682;2023-03-03T06:46:47;181.43;;;88.78;;
21761;SDS011;11203;50.870;20.682;2023-03-03T06:49:13;201.30;;;99.68;;
21761;SDS011;11203;50.870;20.682;2023-03-03T06:51:39;187.25;;;86.95;;
21761;SDS011;11203;50.870;20.682;2023-03-03T06:54:20;173.20;;;77.78;;
21761;SDS011;11203;50.870;20.682;2023-03-03T06:56:52;158.40;;;74.32;;
21761;SDS011;11203;50.870;20.682;2023-03-03T06:59:41;151.90;;;65.05;;
21761;SDS011;11203;50.870;20.682;2023-03-03T07:02:12;159.63;;;73.40;;
21761;SDS011;11203;50.870;20.682;2023-03-03T07:04:42;192.55;;;93.70;;
21761;SDS011;11203;50.870;20.682;2023-03-03T07:07:24;127.97;;;53.58;;
21761;SDS011;11203;50.870;20.682;2023-03-03T07:09:51;146.77;;;63.80;;
21761;SDS011;11203;50.870;20.682;2023-03-03T07:12:21;139.02;;;59.28;;
21761;SDS011;11203;50.870;20.682;2023-03-03T07:14:54;142.60;;;53.28;;
21761;SDS011;11203;50.870;20.682;2023-03-03T07:17:44;167.35;;;70.57;;
21761;SDS011;11203;50.870;20.682;2023-03-03T07:22:47;173.35;;;77.38;;
21761;SDS011;11203;50.870;20.682;2023-03-03T07:25:20;105.47;;;43.40;;
21761;SDS011;11203;50.870;20.682;2023-03-03T07:28:06;146.30;;;59.10;;
21761;SDS011;11203;50.870;20.682;2023-03-03T07:30:52;143.18;;;55.72;;
21761;SDS011;11203;50.870;20.682;2023-03-03T07:33:38;158.40;;;61.45;;
21761;SDS011;11203;50.870;20.682;2023-03-03T07:36:29;144.48;;;58.03;;
21761;SDS011;11203;50.870;20.682;2023-03-03T07:39:00;118.30;;;41.22;;
21761;SDS011;11203;50.870;20.682;2023-03-03T07:41:42;102.10;;;38.97;;
21761;SDS011;11203;50.870;20.682;2023-03-03T07:44:16;177.88;;;70.43;;
21761;SDS011;11203;50.870;20.682;2023-03-03T07:46:47;94.05;;;37.78;;
21761;SDS011;11203;50.870;20.682;2023-03-03T07:52:01;89.55;;;34.20;;
21761;SDS011;11203;50.870;20.682;2023-03-03T07:54:45;138.70;;;55.10;;
21761;SDS011;11203;50.870;20.682;2023-03-03T07:57:18;113.55;;;44.45;;
21761;SDS011;11203;50.870;20.682;2023-03-03T07:59:49;54.08;;;19.73;;
21761;SDS011;11203;50.870;20.682;2023-03-03T08:02:32;135.60;;;53.05;;
21761;SDS011;11203;50.870;20.682;2023-03-03T08:07:46;122.05;;;43.17;;
21761;SDS011;11203;50.870;20.682;2023-03-03T08:10:34;110.78;;;45.40;;
21761;SDS011;11203;50.870;20.682;2023-03-03T08:13:26;78.50;;;27.67;;
21761;SDS011;11203;50.870;20.682;2023-03-03T08:15:55;80.35;;;24.92;;
21761;SDS011;11203;50.870;20.682;2023-03-03T08:18:46;50.47;;;18.40;;
21761;SDS011;11203;50.870;20.682;2023-03-03T08:21:15;114.00;;;41.92;;
21761;SDS011;11203;50.870;20.682;2023-03-03T08:23:44;123.63;;;42.38;;
21761;SDS011;11203;50.870;20.682;2023-03-03T08:38:25;68.55;;;24.77;;
21761;SDS011;11203;50.870;20.682;2023-03-03T08:40:52;53.65;;;20.67;;
21761;SDS011;11203;50.870;20.682;2023-03-03T08:43:18;44.90;;;18.45;;
21761;SDS011;11203;50.870;20.682;2023-03-03T08:45:47;79.00;;;28.48;;
21761;SDS011;11203;50.870;20.682;2023-03-03T08:48:16;71.90;;;29.13;;
21761;SDS011;11203;50.870;20.682;2023-03-03T08:50:42;51.83;;;21.10;;
21761;SDS011;11203;50.870;20.682;2023-03-03T08:53:09;50.75;;;16.45;;
21761;SDS011;11203;50.870;20.682;2023-03-03T08:55:37;37.33;;;14.85;;
21761;SDS011;11203;50.870;20.682;2023-03-03T08:58:03;80.75;;;34.78;;
21761;SDS011;11203;50.870;20.682;2023-03-03T09:00:30;64.68;;;27.02;;
21761;SDS011;11203;50.870;20.682;2023-03-03T09:02:56;28.55;;;12.77;;
21761;SDS011;11203;50.870;20.682;2023-03-03T09:05:24;35.72;;;13.90;;
21761;SDS011;11203;50.870;20.682;2023-03-03T09:07:52;33.30;;;13.05;;
21761;SDS011;11203;50.870;20.682;2023-03-03T09:10:21;36.42;;;12.27;;
21761;SDS011;11203;50.870;20.682;2023-03-03T09:12:53;42.40;;;18.25;;
21761;SDS011;11203;50.870;20.682;2023-03-03T09:15:26;44.50;;;17.83;;
21761;SDS011;11203;50.870;20.682;2023-03-03T09:18:37;31.27;;;13.07;;
21761;SDS011;11203;50.870;20.682;2023-03-03T09:21:00;28.73;;;13.10;;
21761;SDS011;11203;50.870;20.682;2023-03-03T09:23:36;29.98;;;12.88;;
21761;SDS011;11203;50.870;20.682;2023-03-03T09:28:51;46.45;;;21.40;;
21761;SDS011;11203;50.870;20.682;2023-03-03T09:31:44;29.23;;;12.00;;
21761;SDS011;11203;50.870;20.682;2023-03-03T09:37:10;35.15;;;12.35;;
21761;SDS011;11203;50.870;20.682;2023-03-03T09:39:47;39.15;;;18.15;;
21761;SDS011;11203;50.870;20.682;2023-03-03T09:48:05;24.20;;;10.63;;
21761;SDS011;11203;50.870;20.682;2023-03-03T09:56:29;28.10;;;12.35;;
21761;SDS011;11203;50.870;20.682;2023-03-03T09:59:22;34.67;;;17.83;;
21761;SDS011;11203;50.870;20.682;2023-03-03T10:11:28;36.92;;;18.98;;
21761;SDS011;11203;50.870;20.682;2023-03-03T10:19:45;25.05;;;11.15;;
21761;SDS011;11203;50.870;20.682;2023-03-03T10:40:31;26.13;;;10.70;;
21761;SDS011;11203;50.870;20.682;2023-03-03T10:57:31;22.35;;;10.23;;
21761;SDS011;11203;50.870;20.682;2023-03-03T11:00:34;21.17;;;10.95;;
21761;SDS011;11203;50.870;20.682;2023-03-03T11:15:03;37.42;;;17.15;;
21761;SDS011;11203;50.870;20.682;2023-03-03T11:33:14;48.85;;;26.20;;
21761;SDS011;11203;50.870;20.682;2023-03-03T11:38:50;36.92;;;16.17;;
21761;SDS011;11203;50.870;20.682;2023-03-03T11:41:31;42.88;;;22.30;;
21761;SDS011;11203;50.870;20.682;2023-03-03T11:44:28;27.80;;;11.25;;
21761;SDS011;11203;50.870;20.682;2023-03-03T11:55:59;45.92;;;26.73;;
21761;SDS011;11203;50.870;20.682;2023-03-03T11:58:44;49.40;;;28.27;;
21761;SDS011;11203;50.870;20.682;2023-03-03T12:01:30;42.35;;;21.58;;
21761;SDS011;11203;50.870;20.682;2023-03-03T12:04:10;25.90;;;10.32;;
21761;SDS011;11203;50.870;20.682;2023-03-03T12:10:02;40.45;;;17.45;;
21761;SDS011;11203;50.870;20.682;2023-03-03T12:13:00;34.17;;;16.05;;
21761;SDS011;11203;50.870;20.682;2023-03-03T12:15:37;45.85;;;26.20;;
21761;SDS011;11203;50.870;20.682;2023-03-03T12:18:29;42.78;;;22.63;;
21761;SDS011;11203;50.870;20.682;2023-03-03T12:24:27;33.67;;;17.45;;
21761;SDS011;11203;50.870;20.682;2023-03-03T12:27:09;24.33;;;11.60;;
21761;SDS011;11203;50.870;20.682;2023-03-03T12:30:16;27.30;;;12.18;;
21761;SDS011;11203;50.870;20.682;2023-03-03T12:44:56;23.52;;;10.15;;
21761;SDS011;11203;50.870;20.682;2023-03-03T12:47:45;25.35;;;13.52;;
21761;SDS011;11203;50.870;20.682;2023-03-03T12:50:34;44.80;;;23.88;;
21761;SDS011;11203;50.870;20.682;2023-03-03T12:55:55;41.45;;;22.10;;
21761;SDS011;11203;50.870;20.682;2023-03-03T13:04:34;21.58;;;10.05;;
21761;SDS011;11203;50.870;20.682;2023-03-03T13:07:13;42.08;;;24.08;;
21761;SDS011;11203;50.870;20.682;2023-03-03T13:15:59;36.83;;;18.05;;
21761;SDS011;11203;50.870;20.682;2023-03-03T13:18:47;31.17;;;12.07;;
21761;SDS011;11203;50.870;20.682;2023-03-03T13:21:27;43.40;;;23.65;;
21761;SDS011;11203;50.870;20.682;2023-03-03T13:26:48;36.30;;;15.45;;
21761;SDS011;11203;50.870;20.682;2023-03-03T13:32:46;42.65;;;22.15;;
21761;SDS011;11203;50.870;20.682;2023-03-03T13:38:12;49.08;;;24.85;;
21761;SDS011;11203;50.870;20.682;2023-03-03T13:55:42;40.35;;;19.45;;
21761;SDS011;11203;50.870;20.682;2023-03-03T13:58:24;48.05;;;22.70;;
21761;SDS011;11203;50.870;20.682;2023-03-03T14:01:21;32.42;;;15.50;;
21761;SDS011;11203;50.870;20.682;2023-03-03T14:04:28;35.20;;;18.65;;
21761;SDS011;11203;50.870;20.682;2023-03-03T14:07:02;27.58;;;10.80;;
21761;SDS011;11203;50.870;20.682;2023-03-03T14:09:43;30.33;;;11.77;;
21761;SDS011;11203;50.870;20.682;2023-03-03T14:20:57;20.65;;;8.77;;
21761;SDS011;11203;50.870;20.682;2023-03-03T14:23:35;28.05;;;13.27;;
21761;SDS011;11203;50.870;20.682;2023-03-03T14:26:21;28.50;;;12.30;;
21761;SDS011;11203;50.870;20.682;2023-03-03T14:28:48;24.33;;;11.68;;
21761;SDS011;11203;50.870;20.682;2023-03-03T14:37:41;35.60;;;14.48;;
21761;SDS011;11203;50.870;20.682;2023-03-03T14:42:45;31.23;;;12.80;;
21761;SDS011;11203;50.870;20.682;2023-03-03T14:46:28;28.52;;;12.07;;
21761;SDS011;11203;50.870;20.682;2023-03-03T14:50:41;34.30;;;11.57;;
21761;SDS011;11203;50.870;20.682;2023-03-03T14:53:34;47.03;;;24.42;;
21761;SDS011;11203;50.870;20.682;2023-03-03T15:01:39;29.58;;;11.65;;
21761;SDS011;11203;50.870;20.682;2023-03-03T15:04:09;30.73;;;12.95;;
21761;SDS011;11203;50.870;20.682;2023-03-03T15:06:51;36.53;;;13.65;;
21761;SDS011;11203;50.870;20.682;2023-03-03T15:09:28;43.72;;;21.48;;
21761;SDS011;11203;50.870;20.682;2023-03-03T15:12:00;47.42;;;24.58;;
21761;SDS011;11203;50.870;20.682;2023-03-03T15:14:44;40.55;;;19.23;;
21761;SDS011;11203;50.870;20.682;2023-03-03T15:17:38;36.63;;;18.10;;
21761;SDS011;11203;50.870;20.682;2023-03-03T15:34:46;28.50;;;12.30;;
21761;SDS011;11203;50.870;20.682;2023-03-03T15:48:20;43.67;;;20.40;;
21761;SDS011;11203;50.870;20.682;2023-03-03T16:11:23;62.92;;;26.27;;
21761;SDS011;11203;50.870;20.682;2023-03-03T16:23:56;38.28;;;16.30;;
21761;SDS011;11203;50.870;20.682;2023-03-03T16:31:56;29.92;;;13.35;;
21761;SDS011;11203;50.870;20.682;2023-03-03T16:40:32;53.40;;;26.30;;
21761;SDS011;11203;50.870;20.682;2023-03-03T16:45:55;63.75;;;31.77;;
21761;SDS011;11203;50.870;20.682;2023-03-03T16:48:34;57.50;;;25.70;;
21761;SDS011;11203;50.870;20.682;2023-03-03T16:54:43;72.68;;;35.97;;
21761;SDS011;11203;50.870;20.682;2023-03-03T17:00:28;42.00;;;18.17;;
21761;SDS011;11203;50.870;20.682;2023-03-03T17:03:02;70.55;;;38.97;;
21761;SDS011;11203;50.870;20.682;2023-03-03T17:15:18;40.33;;;14.45;;
21761;SDS011;11203;50.870;20.682;2023-03-03T17:20:50;41.90;;;17.55;;
21761;SDS011;11203;50.870;20.682;2023-03-03T17:43:30;40.92;;;16.30;;
21761;SDS011;11203;50.870;20.682;2023-03-03T17:46:05;73.95;;;37.35;;
21761;SDS011;11203;50.870;20.682;2023-03-03T17:52:30;44.67;;;20.80;;
21761;SDS011;11203;50.870;20.682;2023-03-03T18:01:07;49.45;;;21.48;;
21761;SDS011;11203;50.870;20.682;2023-03-03T18:21:53;27.33;;;12.25;;
21761;SDS011;11203;50.870;20.682;2023-03-03T18:30:13;23.73;;;11.18;;
21761;SDS011;11203;50.870;20.682;2023-03-03T18:35:27;28.67;;;13.73;;
21761;SDS011;11203;50.870;20.682;2023-03-03T18:40:50;42.40;;;22.98;;
21761;SDS011;11203;50.870;20.682;2023-03-03T18:46:11;50.17;;;29.02;;
21761;SDS011;11203;50.870;20.682;2023-03-03T18:56:46;55.88;;;32.40;;
21761;SDS011;11203;50.870;20.682;2023-03-03T18:59:37;52.25;;;23.65;;
21761;SDS011;11203;50.870;20.682;2023-03-03T19:04:42;41.10;;;20.70;;
21761;SDS011;11203;50.870;20.682;2023-03-03T19:09:43;34.83;;;18.35;;
21761;SDS011;11203;50.870;20.682;2023-03-03T19:12:16;50.45;;;29.55;;
21761;SDS011;11203;50.870;20.682;2023-03-03T19:14:47;41.35;;;18.70;;
21761;SDS011;11203;50.870;20.682;2023-03-03T19:23:07;44.45;;;21.77;;
21761;SDS011;11203;50.870;20.682;2023-03-03T19:25:32;36.78;;;17.92;;
21761;SDS011;11203;50.870;20.682;2023-03-03T19:34:15;57.80;;;31.67;;
21761;SDS011;11203;50.870;20.682;2023-03-03T19:51:11;30.65;;;14.25;;
21761;SDS011;11203;50.870;20.682;2023-03-03T19:59:04;26.13;;;10.93;;
21761;SDS011;11203;50.870;20.682;2023-03-03T20:13:33;34.20;;;17.20;;
21761;SDS011;11203;50.870;20.682;2023-03-03T20:16:31;46.25;;;22.48;;
21761;SDS011;11203;50.870;20.682;2023-03-03T20:19:17;40.75;;;20.10;;
21761;SDS011;11203;50.870;20.682;2023-03-03T20:27:22;53.47;;;32.85;;
21761;SDS011;11203;50.870;20.682;2023-03-03T20:30:32;41.50;;;22.67;;
21761;SDS011;11203;50.870;20.682;2023-03-03T20:38:44;18.40;;;10.80;;
21761;SDS011;11203;50.870;20.682;2023-03-03T20:46:57;36.13;;;18.40;;
21761;SDS011;11203;50.870;20.682;2023-03-03T20:56:04;39.67;;;22.73;;
21761;SDS011;11203;50.870;20.682;2023-03-03T21:07:35;33.65;;;15.70;;
21761;SDS011;11203;50.870;20.682;2023-03-03T21:10:15;40.53;;;24.05;;
21761;SDS011;11203;50.870;20.682;2023-03-03T21:12:49;31.45;;;15.68;;
21761;SDS011;11203;50.870;20.682;2023-03-03T21:15:27;28.00;;;10.43;;
21761;SDS011;11203;50.870;20.682;2023-03-03T21:18:00;30.05;;;15.88;;
21761;SDS011;11203;50.870;20.682;2023-03-03T21:20:48;27.48;;;14.43;;
21761;SDS011;11203;50.870;20.682;2023-03-03T21:23:15;25.23;;;12.98;;
21761;SDS011;11203;50.870;20.682;2023-03-03T21:28:25;39.63;;;21.40;;
21761;SDS011;11203;50.870;20.682;2023-03-03T21:33:38;34.88;;;19.77;;
21761;SDS011;11203;50.870;20.682;2023-03-03T21:36:19;20.67;;;10.82;;
21761;SDS011;11203;50.870;20.682;2023-03-03T21:39:20;25.38;;;11.05;;
21761;SDS011;11203;50.870;20.682;2023-03-03T21:44:30;20.70;;;9.05;;
21761;SDS011;11203;50.870;20.682;2023-03-03T21:47:20;21.83;;;10.40;;
21761;SDS011;11203;50.870;20.682;2023-03-03T21:49:50;29.52;;;13.30;;
21761;SDS011;11203;50.870;20.682;2023-03-03T21:52:17;26.73;;;12.70;;
21761;SDS011;11203;50.870;20.682;2023-03-03T21:54:46;30.08;;;13.43;;
21761;SDS011;11203;50.870;20.682;2023-03-03T21:57:14;29.10;;;16.33;;
21761;SDS011;11203;50.870;20.682;2023-03-03T21:59:41;35.17;;;19.33;;
21761;SDS011;11203;50.870;20.682;2023-03-03T22:02:08;39.13;;;20.85;;
21761;SDS011;11203;50.870;20.682;2023-03-03T22:04:34;36.20;;;19.30;;
21761;SDS011;11203;50.870;20.682;2023-03-03T22:07:03;40.35;;;23.92;;
21761;SDS011;11203;50.870;20.682;2023-03-03T22:09:29;20.17;;;7.57;;
21761;SDS011;11203;50.870;20.682;2023-03-03T22:11:55;32.78;;;17.55;;
21761;SDS011;11203;50.870;20.682;2023-03-03T22:14:21;23.73;;;10.45;;
21761;SDS011;11203;50.870;20.682;2023-03-03T22:16:47;27.77;;;12.10;;
21761;SDS011;11203;50.870;20.682;2023-03-03T22:19:13;37.85;;;22.60;;